Ευχαριστούμε που συμβάλλετε στη διατήρηση της σελίδας μας.

Thank you for your donations, it really helps to maintain the page.

Meteo Stats And More

Στατιστικά Καιρού & Άλλα..






Δείκτης Πυρκαγιάς (FWI)

Κάμερα Ρομανού more information Romanos Cam


Ιστιοπλοικός Όμιλος Πάτρας more information Istioploikos Omilos Patras


Ραντάρ Κεραυνών more information blitzortung!


Ραντάρ Βροχής more information rain snow radar


Επισκεφθείτε άλλες ιστοσελίδες καιρού μας:

Meteopatras.Eu in
Euweather NetworkMeteopatras.Eu in Euweather Network

Weather CloudWeather Cloud

PWS WeatherPWS Weather

Awekas NetWeather data from station Patra-Ketx

WunderGroundWeather data from station Patra-Ketx




Ιδιοκτησία και Επίβλεψη : Μουλάς Αντρέας

 Πάτρα, Ελλάδα - Γ.Πλάτος : 38°14'21" Β - Γ.Μήκος : 21°45'5" Α - Υψόμετρο : 56μ

Κοντινές Αναφορές METAR

   
LGRX - Araxos
Ενημερώθηκε: 24-10-2018 04:50
Κυρίως Συννεφιά  
Κυρίως Συννεφιά  
   Άνεμος: ΑΒΑ 14.8 km/h
Άνεμος: ΑΒΑ 14.8 km/h
Θερμοκρασία: 18°C
Σημείο Δρόσου: 14°C
Υγρασία: 78%
Βαρόμετρο: 1008 hPa
Σύννεφα: Κυρίως Συννεφιά
Ορατότητα: More than 10 km
Λεπτομέρειες Σύννεφου: Κυρίως Αίθριος 1200 ft,
Μερικώς Νεφελώδης 3000 ft,
Κυρίως Συννεφιά 8000 ft
LGRX 240150Z 06008KT 9999 FEW012 SCT030 BKN080 18/14 Q1008
LGAD - Andravida
Ενημερώθηκε: 24-10-2018 04:50
Κυρίως Αίθριος  
Κυρίως Αίθριος  
   Άνεμος: Άπνοια
Άνεμος: Άπνοια
Θερμοκρασία: 13°C
Σημείο Δρόσου: 11°C
Υγρασία: 88%
Βαρόμετρο: 1008 hPa
Σύννεφα: Κυρίως Αίθριος
Ορατότητα: More than 10 km
Λεπτομέρειες Σύννεφου: Κυρίως Αίθριος 2000 ft
LGAD 240150Z 00000KT 9999 FEW020 13/11 Q1008
LGZA - Zakinthos
Ενημερώθηκε: 24-10-2018 04:50
Μερικώς Νεφελώδης  
Μερικώς Νεφελώδης  
   Άνεμος: Βοράς 14.8 km/h
Άνεμος: Βοράς 14.8 km/h
Θερμοκρασία: 19°C
Σημείο Δρόσου: 14°C
Υγρασία: 73%
Βαρόμετρο: 1009 hPa
Σύννεφα: Μερικώς Νεφελώδης
Ορατότητα: More than 10 km
Λεπτομέρειες Σύννεφου: Κυρίως Αίθριος 2000 ft,
Μερικώς Νεφελώδης 7000 ft
LGZA 240150Z 35008KT 9999 FEW020 SCT070 19/14 Q1009
LGKF - Kefallinia
Ενημερώθηκε: 23-10-2018 22:50
ΜΗ τρέχουσες
Κυρίως Συννεφιά  
Κυρίως Συννεφιά  
   Άνεμος: ΒΒΑ 18.5 km/h
Άνεμος: ΒΒΑ 18.5 km/h
Θερμοκρασία: 19°C
Σημείο Δρόσου: 14°C
Υγρασία: 73%
Βαρόμετρο: 1010 hPa
Σύννεφα: Κυρίως Συννεφιά
Ορατότητα: More than 10 km
Λεπτομέρειες Σύννεφου: Κυρίως Αίθριος 1600 ft,
Μερικώς Νεφελώδης 2000 ft,
Κυρίως Συννεφιά 7000 ft
LGKF 231950Z 03010KT 9999 FEW016 SCT020 BKN070 19/14 Q1010
LGPZ - Preveza
Ενημερώθηκε: 24-10-2018 04:50
Αίθριος  
Αίθριος  
   Άνεμος: ΒΑ 14.8 km/h
Άνεμος: ΒΑ 14.8 km/h
Θερμοκρασία: 17°C
Σημείο Δρόσου: 12°C
Υγρασία: 73%
Βαρόμετρο: 1010 hPa
Ορατότητα: More than 10 km
Λεπτομέρειες Σύννεφου: Αίθριος
LGPZ 240150Z 04008KT CAVOK 17/12 Q1010
LGKL - Kalamata
Ενημερώθηκε: 24-10-2018 04:50
Κυρίως Συννεφιά  
Κυρίως Συννεφιά  
   Άνεμος: ΒΔ 20.4 km/h
Άνεμος: ΒΔ 20.4 km/h
Θερμοκρασία: 18°C
Σημείο Δρόσου: 12°C
Υγρασία: 68%
Βαρόμετρο: 1007 hPa
Σύννεφα: Κυρίως Συννεφιά
Ορατότητα: More than 10 km
Λεπτομέρειες Σύννεφου: Κυρίως Αίθριος 2500 ft,
Κυρίως Συννεφιά 8000 ft
LGKL 240150Z 32011KT 9999 FEW025 BKN080 18/12 Q1007
LGKR - Kerkyra
Ενημερώθηκε: 24-10-2018 04:50
Κυρίως Αίθριος  
Κυρίως Αίθριος  
   Άνεμος: Δύση 7.4 km/h
Άνεμος: Δύση 7.4 km/h
Θερμοκρασία: 14°C
Σημείο Δρόσου: 12°C
Υγρασία: 88%
Βαρόμετρο: 1010 hPa
Σύννεφα: Κυρίως Αίθριος
Ορατότητα: More than 10 km
Λεπτομέρειες Σύννεφου: Κυρίως Αίθριος 2500 ft
LGKR 240150Z 28004KT 9999 FEW025 14/12 Q1010 NOSIG
LGIO - Iwannina
Ενημερώθηκε: 23-10-2018 22:20
ΜΗ τρέχουσες
Κυρίως Συννεφιά  
Κυρίως Συννεφιά  
   Άνεμος: ποικίλλει Άπνοια
Άνεμος: ποικίλλει Άπνοια
Θερμοκρασία: 14°C
Σημείο Δρόσου: 10°C
Υγρασία: 77%
Βαρόμετρο: 1013 hPa
Σύννεφα: Κυρίως Συννεφιά
Ορατότητα: More than 10 km
Λεπτομέρειες Σύννεφου: Μερικώς Νεφελώδης 2000 ft,
Κυρίως Συννεφιά 7000 ft
LGIO 231920Z /////KT 9999 SCT020 BKN070 14/10 Q1013
LGPZ - Leykada
Ενημερώθηκε: 24-10-2018 04:50
Αίθριος  
Αίθριος  
   Άνεμος: ΒΑ 14.8 km/h
Άνεμος: ΒΑ 14.8 km/h
Θερμοκρασία: 17°C
Σημείο Δρόσου: 12°C
Υγρασία: 73%
Βαρόμετρο: 1010 hPa
Ορατότητα: More than 10 km
Λεπτομέρειες Σύννεφου: Αίθριος
LGPZ 240150Z 04008KT CAVOK 17/12 Q1010
LGEL - Elefsina
Ενημερώθηκε: 24-10-2018 04:50
Μερικώς Νεφελώδης  
Μερικώς Νεφελώδης  
   Άνεμος: Βοράς 13 km/h
Άνεμος: Βοράς 13 km/h
Θερμοκρασία: 16°C
Σημείο Δρόσου: 13°C
Υγρασία: 83%
Βαρόμετρο: 1010 hPa
Σύννεφα: Μερικώς Νεφελώδης
Ορατότητα: More than 10 km
Λεπτομέρειες Σύννεφου: Μερικώς Νεφελώδης 2000 ft,
Μερικώς Νεφελώδης 7000 ft
LGEL 240150Z 35007KT 9999 SCT020 SCT070 16/13 Q1010
LGKC - Kythira
Ενημερώθηκε: 23-10-2018 12:50
ΜΗ τρέχουσες
Ελαφρύ ψιλόβροχο, Κυρίως Συννεφιά  
Ελαφρύ ψιλόβροχο, Κυρίως Συννεφιά  
   Άνεμος: Ανατολή 18.5 km/h
Άνεμος: Ανατολή 18.5 km/h
Θερμοκρασία: 17°C
Σημείο Δρόσου: 16°C
Υγρασία: 94%
Βαρόμετρο: 1013 hPa
Σύννεφα: Κυρίως Συννεφιά
Ορατότητα: 7 km
Λεπτομέρειες Σύννεφου: Κυρίως Συννεφιά 700 ft,
Κυρίως Αίθριος 1800 ft,
Κυρίως Συννεφιά 2000 ft
LGKC 230950Z 09010KT 7000 -DZ BKN007 FEW018CB BKN020 17/16 Q1013
LGIR - Hraklio
Ενημερώθηκε: 24-10-2018 04:50
Μερικώς Νεφελώδης  
Μερικώς Νεφελώδης  
   Άνεμος: Νότος 13 km/h
Άνεμος: Νότος 13 km/h
Θερμοκρασία: 17°C
Σημείο Δρόσου: 15°C
Υγρασία: 88%
Βαρόμετρο: 1007 hPa
Σύννεφα: Μερικώς Νεφελώδης
Ορατότητα: More than 10 km
Λεπτομέρειες Σύννεφου: Κυρίως Αίθριος 2000 ft,
Μερικώς Νεφελώδης 8000 ft
LGIR 240150Z 18007KT 9999 FEW020TCU SCT080 17/15 Q1007 NOSIG

Script developed by  Saratoga-weather.org Προσαρμοσμένος για το πρότυπο του  Weerstation Leuven

Μπορείτε να βρείτε πληροφορίες καιρού μας και σε:

European Weather Network

WeatherCloud

Weather Underground

Δύκτιο Σταθμών Ελλάδας

AWEKAS

HAMweather, WeatherForYou, PWS Weather

MeteoPatras.Eu